sensor_id;sensor_type;location;lat;lon;timestamp;temperature;humidity
12233;DHT22;6179;51.748;8.728;2023-01-24T00:02:05;3.60;97.10
12233;DHT22;6179;51.748;8.728;2023-01-24T00:08:06;3.50;97.60
12233;DHT22;6179;51.748;8.728;2023-01-24T00:14:07;3.30;97.50
12233;DHT22;6179;51.748;8.728;2023-01-24T00:20:08;3.30;97.60
12233;DHT22;6179;51.748;8.728;2023-01-24T00:26:10;3.10;98.30
12233;DHT22;6179;51.748;8.728;2023-01-24T00:32:12;3.20;97.00
12233;DHT22;6179;51.748;8.728;2023-01-24T00:38:13;3.00;98.30
12233;DHT22;6179;51.748;8.728;2023-01-24T00:44:14;3.10;98.30
12233;DHT22;6179;51.748;8.728;2023-01-24T00:50:14;3.40;97.80
12233;DHT22;6179;51.748;8.728;2023-01-24T00:56:15;3.30;98.30
12233;DHT22;6179;51.748;8.728;2023-01-24T01:02:16;3.00;98.30
12233;DHT22;6179;51.748;8.728;2023-01-24T01:08:17;3.40;97.50
12233;DHT22;6179;51.748;8.728;2023-01-24T01:14:18;3.40;96.90
12233;DHT22;6179;51.748;8.728;2023-01-24T01:20:18;3.50;97.00
12233;DHT22;6179;51.748;8.728;2023-01-24T01:26:20;3.50;97.10
12233;DHT22;6179;51.748;8.728;2023-01-24T01:32:22;3.60;97.20
12233;DHT22;6179;51.748;8.728;2023-01-24T01:38:22;3.30;97.60
12233;DHT22;6179;51.748;8.728;2023-01-24T01:44:27;3.50;97.70
12233;DHT22;6179;51.748;8.728;2023-01-24T01:51:19;3.40;96.60
12233;DHT22;6179;51.748;8.728;2023-01-24T01:57:27;3.50;97.10
12233;DHT22;6179;51.748;8.728;2023-01-24T02:03:36;3.50;96.70
12233;DHT22;6179;51.748;8.728;2023-01-24T02:09:47;3.40;96.00
12233;DHT22;6179;51.748;8.728;2023-01-24T02:15:53;3.40;95.40
12233;DHT22;6179;51.748;8.728;2023-01-24T02:22:20;3.40;95.90
12233;DHT22;6179;51.748;8.728;2023-01-24T02:28:29;3.30;95.80
12233;DHT22;6179;51.748;8.728;2023-01-24T02:34:31;3.20;96.80
12233;DHT22;6179;51.748;8.728;2023-01-24T02:40:32;3.20;96.10
12233;DHT22;6179;51.748;8.728;2023-01-24T02:46:36;3.10;97.20
12233;DHT22;6179;51.748;8.728;2023-01-24T02:52:37;3.20;96.50
12233;DHT22;6179;51.748;8.728;2023-01-24T02:58:56;3.10;97.30
12233;DHT22;6179;51.748;8.728;2023-01-24T03:04:57;3.20;95.90
12233;DHT22;6179;51.748;8.728;2023-01-24T03:10:58;3.30;95.70
12233;DHT22;6179;51.748;8.728;2023-01-24T03:17:00;3.00;97.50
12233;DHT22;6179;51.748;8.728;2023-01-24T03:23:19;3.30;96.20
12233;DHT22;6179;51.748;8.728;2023-01-24T03:29:38;3.20;95.80
12233;DHT22;6179;51.748;8.728;2023-01-24T03:35:58;3.30;96.10
12233;DHT22;6179;51.748;8.728;2023-01-24T03:42:02;3.20;96.30
12233;DHT22;6179;51.748;8.728;2023-01-24T03:48:08;2.90;96.70
12233;DHT22;6179;51.748;8.728;2023-01-24T03:54:15;3.20;96.10
12233;DHT22;6179;51.748;8.728;2023-01-24T04:00:16;2.80;97.60
12233;DHT22;6179;51.748;8.728;2023-01-24T04:06:18;3.30;95.80
12233;DHT22;6179;51.748;8.728;2023-01-24T04:12:18;3.30;95.50
12233;DHT22;6179;51.748;8.728;2023-01-24T04:18:19;2.70;97.40
12233;DHT22;6179;51.748;8.728;2023-01-24T04:24:20;3.00;96.10
12233;DHT22;6179;51.748;8.728;2023-01-24T04:30:21;2.90;96.20
12233;DHT22;6179;51.748;8.728;2023-01-24T04:36:22;2.80;97.30
12233;DHT22;6179;51.748;8.728;2023-01-24T04:42:23;2.80;97.60
12233;DHT22;6179;51.748;8.728;2023-01-24T04:48:24;3.10;96.40
12233;DHT22;6179;51.748;8.728;2023-01-24T04:54:25;2.70;96.90
12233;DHT22;6179;51.748;8.728;2023-01-24T05:00:26;2.90;97.00
12233;DHT22;6179;51.748;8.728;2023-01-24T05:06:30;2.90;96.00
12233;DHT22;6179;51.748;8.728;2023-01-24T05:12:32;2.70;96.60
12233;DHT22;6179;51.748;8.728;2023-01-24T05:18:33;2.60;97.70
12233;DHT22;6179;51.748;8.728;2023-01-24T05:24:33;2.80;97.80
12233;DHT22;6179;51.748;8.728;2023-01-24T05:30:34;2.50;97.90
12233;DHT22;6179;51.748;8.728;2023-01-24T05:36:35;2.80;97.50
12233;DHT22;6179;51.748;8.728;2023-01-24T05:42:36;2.50;98.10
12233;DHT22;6179;51.748;8.728;2023-01-24T05:48:37;2.60;97.50
12233;DHT22;6179;51.748;8.728;2023-01-24T05:54:38;2.30;98.30
12233;DHT22;6179;51.748;8.728;2023-01-24T06:00:38;2.50;98.30
12233;DHT22;6179;51.748;8.728;2023-01-24T06:06:39;2.90;97.30
12233;DHT22;6179;51.748;8.728;2023-01-24T06:12:40;2.90;96.50
12233;DHT22;6179;51.748;8.728;2023-01-24T06:18:41;2.60;98.00
12233;DHT22;6179;51.748;8.728;2023-01-24T06:24:42;2.80;96.50
12233;DHT22;6179;51.748;8.728;2023-01-24T06:31:03;2.90;97.10
12233;DHT22;6179;51.748;8.728;2023-01-24T06:43:47;2.60;97.40
12233;DHT22;6179;51.748;8.728;2023-01-24T06:49:48;2.70;97.40
12233;DHT22;6179;51.748;8.728;2023-01-24T06:55:48;2.90;95.70
12233;DHT22;6179;51.748;8.728;2023-01-24T07:01:50;2.90;95.60
12233;DHT22;6179;51.748;8.728;2023-01-24T07:07:50;2.90;95.70
12233;DHT22;6179;51.748;8.728;2023-01-24T07:13:51;3.00;95.50
12233;DHT22;6179;51.748;8.728;2023-01-24T07:19:52;2.60;96.40
12233;DHT22;6179;51.748;8.728;2023-01-24T07:25:54;3.00;95.50
12233;DHT22;6179;51.748;8.728;2023-01-24T07:31:56;3.00;94.40
12233;DHT22;6179;51.748;8.728;2023-01-24T07:37:56;2.70;96.00
12233;DHT22;6179;51.748;8.728;2023-01-24T07:43:57;2.80;96.30
12233;DHT22;6179;51.748;8.728;2023-01-24T07:49:58;2.60;96.50
12233;DHT22;6179;51.748;8.728;2023-01-24T07:56:00;2.40;97.40
12233;DHT22;6179;51.748;8.728;2023-01-24T08:02:01;2.40;98.30
12233;DHT22;6179;51.748;8.728;2023-01-24T08:08:02;2.40;97.20
12233;DHT22;6179;51.748;8.728;2023-01-24T08:14:03;2.30;97.10
12233;DHT22;6179;51.748;8.728;2023-01-24T08:20:04;2.40;97.40
12233;DHT22;6179;51.748;8.728;2023-01-24T08:26:06;2.90;95.50
12233;DHT22;6179;51.748;8.728;2023-01-24T08:32:06;2.70;95.90
12233;DHT22;6179;51.748;8.728;2023-01-24T08:38:07;2.40;96.80
12233;DHT22;6179;51.748;8.728;2023-01-24T08:44:08;2.40;97.00
12233;DHT22;6179;51.748;8.728;2023-01-24T08:50:10;2.50;97.60
12233;DHT22;6179;51.748;8.728;2023-01-24T08:56:11;2.80;96.30
12233;DHT22;6179;51.748;8.728;2023-01-24T09:02:14;2.70;96.70
12233;DHT22;6179;51.748;8.728;2023-01-24T09:08:15;2.80;97.00
12233;DHT22;6179;51.748;8.728;2023-01-24T09:14:16;2.90;95.50
12233;DHT22;6179;51.748;8.728;2023-01-24T09:20:17;2.80;96.70
12233;DHT22;6179;51.748;8.728;2023-01-24T09:26:18;2.70;96.70
12233;DHT22;6179;51.748;8.728;2023-01-24T09:32:19;2.90;96.10
12233;DHT22;6179;51.748;8.728;2023-01-24T09:38:20;2.50;97.80
12233;DHT22;6179;51.748;8.728;2023-01-24T09:44:46;2.70;96.80
12233;DHT22;6179;51.748;8.728;2023-01-24T09:51:01;2.70;96.90
12233;DHT22;6179;51.748;8.728;2023-01-24T09:57:13;2.80;95.90
12233;DHT22;6179;51.748;8.728;2023-01-24T10:03:25;2.70;96.40
12233;DHT22;6179;51.748;8.728;2023-01-24T10:28:58;2.70;96.70
12233;DHT22;6179;51.748;8.728;2023-01-24T10:35:22;2.80;97.60
12233;DHT22;6179;51.748;8.728;2023-01-24T10:41:31;2.80;98.10
12233;DHT22;6179;51.748;8.728;2023-01-24T10:47:48;2.80;96.80
12233;DHT22;6179;51.748;8.728;2023-01-24T10:54:02;2.80;96.60
12233;DHT22;6179;51.748;8.728;2023-01-24T11:06:32;2.80;96.70
12233;DHT22;6179;51.748;8.728;2023-01-24T11:12:50;3.00;95.70
12233;DHT22;6179;51.748;8.728;2023-01-24T11:19:00;2.90;96.60
12233;DHT22;6179;51.748;8.728;2023-01-24T11:25:13;2.60;97.60
12233;DHT22;6179;51.748;8.728;2023-01-24T11:31:20;2.60;98.30
12233;DHT22;6179;51.748;8.728;2023-01-24T11:44:36;3.00;95.70
12233;DHT22;6179;51.748;8.728;2023-01-24T11:57:02;2.90;96.40
12233;DHT22;6179;51.748;8.728;2023-01-24T12:10:08;3.20;95.10
12233;DHT22;6179;51.748;8.728;2023-01-24T12:16:51;2.90;95.50
12233;DHT22;6179;51.748;8.728;2023-01-24T12:23:57;3.00;94.90
12233;DHT22;6179;51.748;8.728;2023-01-24T12:29:39;3.30;93.70
12233;DHT22;6179;51.748;8.728;2023-01-24T12:35:49;3.00;95.20
12233;DHT22;6179;51.748;8.728;2023-01-24T12:42:01;3.00;95.50
12233;DHT22;6179;51.748;8.728;2023-01-24T12:54:42;2.90;96.10
12233;DHT22;6179;51.748;8.728;2023-01-24T13:32:38;2.70;96.40
12233;DHT22;6179;51.748;8.728;2023-01-24T13:38:41;2.90;95.90
12233;DHT22;6179;51.748;8.728;2023-01-24T13:44:44;2.90;96.60
12233;DHT22;6179;51.748;8.728;2023-01-24T13:57:32;2.90;96.10
12233;DHT22;6179;51.748;8.728;2023-01-24T14:03:38;2.80;95.50
12233;DHT22;6179;51.748;8.728;2023-01-24T14:09:39;2.30;96.60
12233;DHT22;6179;51.748;8.728;2023-01-24T14:15:41;2.30;96.80
12233;DHT22;6179;51.748;8.728;2023-01-24T14:28:17;2.80;95.70
12233;DHT22;6179;51.748;8.728;2023-01-24T14:34:39;3.00;93.40
12233;DHT22;6179;51.748;8.728;2023-01-24T14:40:54;2.80;94.10
12233;DHT22;6179;51.748;8.728;2023-01-24T14:47:04;2.90;94.30
12233;DHT22;6179;51.748;8.728;2023-01-24T14:53:24;2.90;94.20
12233;DHT22;6179;51.748;8.728;2023-01-24T14:59:27;2.70;94.30
12233;DHT22;6179;51.748;8.728;2023-01-24T15:05:34;2.30;95.80
12233;DHT22;6179;51.748;8.728;2023-01-24T15:11:36;2.20;96.10
12233;DHT22;6179;51.748;8.728;2023-01-24T15:17:38;2.30;96.30
12233;DHT22;6179;51.748;8.728;2023-01-24T15:23:48;2.40;95.90
12233;DHT22;6179;51.748;8.728;2023-01-24T15:42:25;2.60;95.50
12233;DHT22;6179;51.748;8.728;2023-01-24T15:48:59;2.40;96.70
12233;DHT22;6179;51.748;8.728;2023-01-24T15:55:01;2.30;97.40
12233;DHT22;6179;51.748;8.728;2023-01-24T16:01:04;2.30;97.00
12233;DHT22;6179;51.748;8.728;2023-01-24T16:07:06;2.10;96.70
12233;DHT22;6179;51.748;8.728;2023-01-24T16:19:40;2.00;96.70
12233;DHT22;6179;51.748;8.728;2023-01-24T16:25:41;1.80;97.40
12233;DHT22;6179;51.748;8.728;2023-01-24T16:31:42;1.90;97.80
12233;DHT22;6179;51.748;8.728;2023-01-24T16:37:44;2.30;96.60
12233;DHT22;6179;51.748;8.728;2023-01-24T16:43:45;2.00;96.80
12233;DHT22;6179;51.748;8.728;2023-01-24T16:49:46;1.90;97.20
12233;DHT22;6179;51.748;8.728;2023-01-24T16:55:56;2.30;96.60
12233;DHT22;6179;51.748;8.728;2023-01-24T17:01:57;2.40;95.60
12233;DHT22;6179;51.748;8.728;2023-01-24T17:07:58;2.00;97.10
12233;DHT22;6179;51.748;8.728;2023-01-24T17:13:59;1.50;98.30
12233;DHT22;6179;51.748;8.728;2023-01-24T17:20:00;1.90;98.10
12233;DHT22;6179;51.748;8.728;2023-01-24T17:26:02;1.80;98.30
12233;DHT22;6179;51.748;8.728;2023-01-24T17:32:05;2.00;97.00
12233;DHT22;6179;51.748;8.728;2023-01-24T17:38:07;1.60;98.30
12233;DHT22;6179;51.748;8.728;2023-01-24T17:44:10;1.50;98.30
12233;DHT22;6179;51.748;8.728;2023-01-24T17:50:12;1.90;98.20
12233;DHT22;6179;51.748;8.728;2023-01-24T17:56:14;1.90;97.00
12233;DHT22;6179;51.748;8.728;2023-01-24T18:02:16;2.00;97.40
12233;DHT22;6179;51.748;8.728;2023-01-24T18:08:17;1.70;98.30
12233;DHT22;6179;51.748;8.728;2023-01-24T18:14:19;1.80;98.30
12233;DHT22;6179;51.748;8.728;2023-01-24T18:20:20;1.90;98.30
12233;DHT22;6179;51.748;8.728;2023-01-24T18:26:21;2.10;97.60
12233;DHT22;6179;51.748;8.728;2023-01-24T18:32:23;2.00;98.10
12233;DHT22;6179;51.748;8.728;2023-01-24T18:38:23;2.10;97.10
12233;DHT22;6179;51.748;8.728;2023-01-24T18:44:24;2.00;97.60
12233;DHT22;6179;51.748;8.728;2023-01-24T18:50:25;1.90;98.10
12233;DHT22;6179;51.748;8.728;2023-01-24T18:56:26;1.90;97.30
12233;DHT22;6179;51.748;8.728;2023-01-24T19:02:26;1.70;98.30
12233;DHT22;6179;51.748;8.728;2023-01-24T19:08:27;1.60;98.30
12233;DHT22;6179;51.748;8.728;2023-01-24T19:14:28;1.50;98.30
12233;DHT22;6179;51.748;8.728;2023-01-24T19:20:30;1.60;98.30
12233;DHT22;6179;51.748;8.728;2023-01-24T19:26:31;1.80;98.30
12233;DHT22;6179;51.748;8.728;2023-01-24T19:32:33;1.70;98.30
12233;DHT22;6179;51.748;8.728;2023-01-24T19:38:36;1.60;98.30
12233;DHT22;6179;51.748;8.728;2023-01-24T19:44:37;1.60;98.30
12233;DHT22;6179;51.748;8.728;2023-01-24T19:50:38;2.00;98.20
12233;DHT22;6179;51.748;8.728;2023-01-24T19:56:39;1.70;98.30
12233;DHT22;6179;51.748;8.728;2023-01-24T20:02:44;1.90;98.30
12233;DHT22;6179;51.748;8.728;2023-01-24T20:08:54;2.00;98.30
12233;DHT22;6179;51.748;8.728;2023-01-24T20:14:55;1.80;98.30
12233;DHT22;6179;51.748;8.728;2023-01-24T20:20:56;1.80;98.30
12233;DHT22;6179;51.748;8.728;2023-01-24T20:26:59;1.60;98.30
12233;DHT22;6179;51.748;8.728;2023-01-24T20:33:00;1.70;98.30
12233;DHT22;6179;51.748;8.728;2023-01-24T20:39:01;1.80;98.30
12233;DHT22;6179;51.748;8.728;2023-01-24T20:45:02;1.70;98.30
12233;DHT22;6179;51.748;8.728;2023-01-24T20:51:05;1.60;98.30
12233;DHT22;6179;51.748;8.728;2023-01-24T20:57:07;1.60;98.30
12233;DHT22;6179;51.748;8.728;2023-01-24T21:03:08;1.80;98.30
12233;DHT22;6179;51.748;8.728;2023-01-24T21:09:09;2.00;98.30
12233;DHT22;6179;51.748;8.728;2023-01-24T21:15:10;1.70;98.30
12233;DHT22;6179;51.748;8.728;2023-01-24T21:21:11;1.80;98.30
12233;DHT22;6179;51.748;8.728;2023-01-24T21:27:12;2.00;98.30
12233;DHT22;6179;51.748;8.728;2023-01-24T21:33:12;1.90;98.30
12233;DHT22;6179;51.748;8.728;2023-01-24T21:39:13;1.80;98.30
12233;DHT22;6179;51.748;8.728;2023-01-24T21:45:15;1.90;98.30
12233;DHT22;6179;51.748;8.728;2023-01-24T21:51:16;1.90;98.30
12233;DHT22;6179;51.748;8.728;2023-01-24T21:57:17;2.10;98.30
12233;DHT22;6179;51.748;8.728;2023-01-24T22:03:37;1.70;98.30
12233;DHT22;6179;51.748;8.728;2023-01-24T22:09:38;2.00;98.30
12233;DHT22;6179;51.748;8.728;2023-01-24T22:15:39;2.00;98.30
12233;DHT22;6179;51.748;8.728;2023-01-24T22:28:21;1.90;98.30
12233;DHT22;6179;51.748;8.728;2023-01-24T22:34:23;1.90;98.30
12233;DHT22;6179;51.748;8.728;2023-01-24T22:40:25;1.90;98.30
12233;DHT22;6179;51.748;8.728;2023-01-24T22:46:26;2.00;98.30
12233;DHT22;6179;51.748;8.728;2023-01-24T22:52:27;2.40;98.30
12233;DHT22;6179;51.748;8.728;2023-01-24T22:58:28;2.30;98.30
12233;DHT22;6179;51.748;8.728;2023-01-24T23:04:29;2.00;98.30
12233;DHT22;6179;51.748;8.728;2023-01-24T23:10:29;1.80;98.30
12233;DHT22;6179;51.748;8.728;2023-01-24T23:16:39;1.90;98.30
12233;DHT22;6179;51.748;8.728;2023-01-24T23:22:40;1.50;98.30
12233;DHT22;6179;51.748;8.728;2023-01-24T23:28:41;1.30;98.30
12233;DHT22;6179;51.748;8.728;2023-01-24T23:34:57;2.00;98.30
12233;DHT22;6179;51.748;8.728;2023-01-24T23:41:02;1.90;98.30
12233;DHT22;6179;51.748;8.728;2023-01-24T23:47:04;1.70;98.30
12233;DHT22;6179;51.748;8.728;2023-01-24T23:53:05;1.90;98.30
12233;DHT22;6179;51.748;8.728;2023-01-24T23:59:06;2.00;98.30
